Autopride — CQQE — position and weather

sailwx.info

Track history (hours):
 
Tides and Currents Weather Stations Pressure Air Temp Water Temp Dewpoint Dewpoint Depression Visibility Wind Speed Wind Dir Waves Ship Positions

Autopride

Last reported at 2017-Mar-26 08:33 UTC. Time now 2017-Mar-26 09:11 UTC.
Position N 54°35' E 007°25'.

Length 125 m; draft 4.7 m.

Type: Cargo ship. MMSI: 255801560.

Date/timePositionNaut miles runAvg speedWind from/ knotsBaromVisibWave heightAir tempDewpointWater temp
2017-Mar-26 08:33N 54°35' E 007°25'1514.7
2017-Mar-26 07:33N 54°49' E 007°25'1515.4
2017-Mar-26 06:33N 55°05' E 007°24'1515.4
2017-Mar-26 05:33N 55°20' E 007°23'1514.8
2017-Mar-26 04:33N 55°35' E 007°21'1514.8
2017-Mar-26 03:33N 55°49' E 007°28'10414.9
2017-Mar-25 20:34N 57°23' E 008°51'1919.4
2017-Mar-25 19:33N 57°32' E 009°23'1919.3
2017-Mar-25 18:33N 57°41' E 009°56'1919.1
2017-Mar-25 17:34N 57°49' E 010°28'1817.7
2017-Mar-25 16:34N 57°43' E 010°59'1919.0
2017-Mar-25 15:34N 57°29' E 011°24'1919.4
2017-Mar-25 14:33N 57°11' E 011°38'2019.8
2017-Mar-25 13:32N 56°52' E 011°51'3819.1
2017-Mar-25 11:34N 56°16' E 012°11'2019.6
2017-Mar-25 10:34N 56°04' E 012°38'1817.6
2017-Mar-25 09:34N 55°46' E 012°42'5 4.7
2017-Mar-25 08:31N 55°43' E 012°37'0 0.0
2017-Mar-25 07:28N 55°43' E 012°37'0 0.0
2017-Mar-25 06:31N 55°43' E 012°37'0 0.0
2017-Mar-25 05:31N 55°43' E 012°37'0 0.0
2017-Mar-25 04:33N 55°43' E 012°37'9 9.1
2017-Mar-25 03:33N 55°51' E 012°42'1211.9
2017-Mar-25 02:33N 56°03' E 012°39'1312.9
2017-Mar-25 01:34N 56°11' E 012°21'1312.5
2017-Mar-25 00:31N 56°19' E 012°03'4213.1
2017-Mar-24 21:20N 56°59' E 011°43'1013.0
2017-Mar-24 20:33N 57°09' E 011°36'1413.6
2017-Mar-24 19:33N 57°22' E 011°28'1312.7
2017-Mar-24 18:33N 57°32' E 011°14'1312.8
2017-Mar-24 17:34N 57°41' E 010°57'1211.9
2017-Mar-24 16:32N 57°51' E 010°44'1312.8
2017-Mar-24 15:33N 58°04' E 010°43'1312.9
2017-Mar-24 14:33N 58°17' E 010°43'1413.5
2017-Mar-24 13:32N 58°30' E 010°41'1413.3
2017-Mar-24 12:31N 58°44' E 010°40'1313.1
2017-Mar-24 11:33N 58°56' E 010°39'1414.5
2017-Mar-24 10:34N 59°11' E 010°38'2020.0
2017-Mar-24 09:33N 59°31' E 010°35'1515.5
2017-Mar-24 08:33N 59°46' E 010°33'9 9.1
2017-Mar-24 07:31N 59°53' E 010°46'0 0.0
2017-Mar-24 06:31N 59°53' E 010°46'0 0.0
2017-Mar-24 05:31N 59°53' E 010°46'0 0.0
2017-Mar-24 04:31N 59°53' E 010°46'0 0.0
2017-Mar-24 03:31N 59°53' E 010°46'0 0.0
2017-Mar-24 02:31N 59°53' E 010°46'0 0.0
2017-Mar-24 01:31N 59°53' E 010°46'0 0.0
2017-Mar-24 00:31N 59°53' E 010°46'0 0.0
2017-Mar-23 23:31N 59°53' E 010°46'0 0.2
2017-Mar-23 22:33N 59°53' E 010°46'1212.1
2017-Mar-23 21:33N 59°42' E 010°36'1313.5
2017-Mar-23 20:33N 59°29' E 010°33'1111.1
2017-Mar-23 19:33N 59°39' E 010°24'7 7.2
2017-Mar-23 18:33N 59°44' E 010°14'0 0.0
2017-Mar-23 17:33N 59°44' E 010°14'0 0.0
2017-Mar-23 16:33N 59°44' E 010°14'0 0.0
2017-Mar-23 15:09N 59°44' E 010°14'4 7.4
2017-Mar-23 14:33N 59°42' E 010°21'1212.0
2017-Mar-23 13:34N 59°30' E 010°27'1918.5
2017-Mar-23 12:34N 59°13' E 010°39'1818.1
2017-Mar-23 11:34N 58°55' E 010°27'1817.8
2017-Mar-23 10:34N 58°41' E 010°08'3414.1
2017-Mar-23 08:08N 58°12' E 009°32'1114.3
2017-Mar-23 07:22N 58°03' E 009°21'14517.8
2017-Mar-22 23:11N 55°50' E 007°30'1218.4
2017-Mar-22 22:32N 55°39' E 007°24'1818.7
2017-Mar-22 21:33N 55°20' E 007°26'1818.3
2017-Mar-22 20:33N 55°02' E 007°25'1918.6
2017-Mar-22 19:33N 54°44' E 007°27'5516.6
2017-Mar-22 16:16N 53°52' E 007°56'1216.6
2017-Mar-22 15:33N 53°45' E 008°13'1515.4
2017-Mar-22 14:33N 53°35' E 008°32'1 1.4
2017-Mar-22 13:32N 53°34' E 008°34'0 0.5
2017-Mar-22 12:32N 53°34' E 008°34'0 0.0
2017-Mar-22 11:32N 53°34' E 008°34'0 0.0
2017-Mar-22 10:32N 53°34' E 008°34'0 0.0
2017-Mar-22 09:32N 53°34' E 008°34'0 0.0
2017-Mar-22 08:32N 53°34' E 008°34'0 0.0
2017-Mar-22 07:32N 53°34' E 008°34'0 0.0
2017-Mar-22 06:32N 53°34' E 008°34'0 0.0
2017-Mar-22 05:32N 53°34' E 008°34'0 0.0
2017-Mar-22 04:32N 53°34' E 008°34'1 1.0
2017-Mar-22 03:31N 53°35' E 008°33'0 0.0
2017-Mar-22 02:31N 53°35' E 008°33'0 0.0
2017-Mar-22 01:33N 53°35' E 008°33'0 0.0
2017-Mar-22 00:34N 53°35' E 008°33'0 0.0
2017-Mar-21 23:33N 53°35' E 008°33'0 0.0
2017-Mar-21 22:33N 53°35' E 008°33'0 0.0
2017-Mar-21 21:33N 53°35' E 008°33'0 0.0
2017-Mar-21 20:33N 53°35' E 008°33'0 0.0
2017-Mar-21 19:33N 53°35' E 008°33'0 0.0
2017-Mar-21 18:33N 53°35' E 008°33'0 0.0
2017-Mar-21 17:33N 53°35' E 008°33'0 0.0
2017-Mar-21 16:33N 53°35' E 008°33'1 0.5
2017-Mar-21 15:33N 53°34' E 008°33'7 7.4
2017-Mar-21 14:33N 53°39' E 008°24'1616.0
2017-Mar-21 13:33N 53°50' E 008°04'1514.4
2017-Mar-21 12:31N 53°55' E 007°40'4911.4
2017-Mar-21 08:13N 54°43' E 007°25'811.9
2017-Mar-21 07:33N 54°51' E 007°25'1414.3
2017-Mar-21 06:33N 55°05' E 007°24'1818.2
2017-Mar-21 05:33N 55°23' E 007°23'1817.4
2017-Mar-21 04:33N 55°41' E 007°25'19118.4
2017-Mar-20 18:11N 58°32' E 010°04'1219.2
2017-Mar-20 17:34N 58°41' E 010°17'1919.0
2017-Mar-20 16:33N 58°59' E 010°32'1918.8
2017-Mar-20 15:33N 59°17' E 010°36'1817.7
2017-Mar-20 14:34N 59°35' E 010°38'1616.1
2017-Mar-20 13:33N 59°51' E 010°36'5 5.3
2017-Mar-20 12:32N 59°53' E 010°46'0 0.0
2017-Mar-20 11:32N 59°53' E 010°46'0 0.0
2017-Mar-20 10:29N 59°53' E 010°46'0 0.0
2017-Mar-20 09:32N 59°53' E 010°46'0 0.0
2017-Mar-20 08:32N 59°53' E 010°46'0 0.0
2017-Mar-20 07:32N 59°53' E 010°46'0 0.0
2017-Mar-20 06:32N 59°53' E 010°46'0 0.0
2017-Mar-20 05:32N 59°53' E 010°46'0 0.0
2017-Mar-20 04:32N 59°53' E 010°46'0 0.0
2017-Mar-20 03:32N 59°53' E 010°46'0 0.0
2017-Mar-20 02:32N 59°53' E 010°46'0 0.0
2017-Mar-20 01:32N 59°53' E 010°46'0 0.0
2017-Mar-20 00:32N 59°53' E 010°46'0 0.0
2017-Mar-19 23:32N 59°53' E 010°46'0 0.0
2017-Mar-19 22:32N 59°53' E 010°46'7 7.7
2017-Mar-19 21:33N 59°48' E 010°35'1514.7
2017-Mar-19 20:33N 59°34' E 010°37'1918.7
2017-Mar-19 19:34N 59°15' E 010°38'1918.5
2017-Mar-19 18:34N 58°57' E 010°29'1414.2
2017-Mar-19 17:34N 58°45' E 010°13'16814.7
2017-Mar-19 06:08N 56°18' E 007°43'914.6
2017-Mar-19 05:33N 56°10' E 007°39'1414.4
2017-Mar-19 04:33N 55°56' E 007°32'1514.3
2017-Mar-19 03:28N 55°41' E 007°24'1313.9
2017-Mar-19 02:33N 55°28' E 007°22'1413.6
2017-Mar-19 01:33N 55°15' E 007°24'1313.3
2017-Mar-19 00:33N 55°02' E 007°26'1313.3
2017-Mar-18 23:33N 54°48' E 007°27'1313.1
2017-Mar-18 22:33N 54°35' E 007°30'5213.1
2017-Mar-18 18:33N 53°48' E 008°08'1818.5
2017-Mar-18 17:33N 53°36' E 008°31'2 1.7
2017-Mar-18 16:32N 53°35' E 008°34'0 0.0
2017-Mar-18 15:32N 53°35' E 008°34'0 0.0
2017-Mar-18 14:32N 53°35' E 008°34'0 0.2
2017-Mar-18 13:33N 53°35' E 008°33'1 0.7
2017-Mar-18 12:31N 53°34' E 008°34'0 0.0
2017-Mar-18 11:31N 53°34' E 008°34'0 0.0
2017-Mar-18 10:31N 53°34' E 008°34'0 0.0
2017-Mar-18 09:33N 53°34' E 008°34'0 0.0
2017-Mar-18 08:33N 53°34' E 008°34'0 0.0
2017-Mar-18 07:34N 53°34' E 008°34'0 0.0
2017-Mar-18 06:33N 53°34' E 008°34'0 0.5
2017-Mar-18 05:33N 53°34' E 008°34'0 0.1
2017-Mar-18 04:33N 53°33' E 008°34'6 6.3
2017-Mar-18 03:33N 53°38' E 008°26'1413.5
2017-Mar-18 02:33N 53°47' E 008°09'1211.9
2017-Mar-18 01:33N 53°52' E 007°51'10 9.5
2017-Mar-18 00:29N 53°52' E 007°34'54 9.1
2017-Mar-17 18:34N 54°46' E 007°25'1111.2
2017-Mar-17 17:33N 54°57' E 007°25'1111.2
2017-Mar-17 16:33N 55°08' E 007°25'1211.4
2017-Mar-17 15:33N 55°20' E 007°24'1211.7
2017-Mar-17 14:33N 55°31' E 007°21'1211.6
2017-Mar-17 13:32N 55°43' E 007°25'1311.6
2017-Mar-17 12:26N 55°55' E 007°32'18412.4
2017-Mar-16 21:33N 58°38' E 010°12'1212.2
2017-Mar-16 20:33N 58°48' E 010°23'1312.6
2017-Mar-16 19:34N 58°60' E 010°33'1414.2
2017-Mar-16 18:33N 59°14' E 010°37'1818.2
2017-Mar-16 17:33N 59°32' E 010°36'1515.3
2017-Mar-16 16:33N 59°47' E 010°34'8 8.2
2017-Mar-16 15:31N 59°53' E 010°46'0 0.0
2017-Mar-16 14:29N 59°53' E 010°46'0 0.0
2017-Mar-16 13:31N 59°53' E 010°46'0 0.0
2017-Mar-16 12:33N 59°53' E 010°46'0 0.0
2017-Mar-16 11:33N 59°53' E 010°46'0 0.0
2017-Mar-16 10:33N 59°53' E 010°46'5 5.5
2017-Mar-16 09:34N 59°50' E 010°36'1212.0
2017-Mar-16 08:34N 59°38' E 010°37'  
Track history (hours):
 
Tides and Currents Weather Stations Pressure Air Temp Water Temp Dewpoint Dewpoint Depression Visibility Wind Speed Wind Dir Waves Ship Positions

Autopride

Last reported at 2017-Mar-26 08:33 UTC. Time now 2017-Mar-26 09:11 UTC.
Position N 54°35' E 007°25'.

Length 125 m; draft 4.7 m.

Type: Cargo ship. MMSI: 255801560.

Date/timePositionNaut miles runAvg speedWind from/ knotsBaromVisibWave heightAir tempDewpointWater temp
2017-Mar-26 08:33N 54°35' E 007°25'1514.7
2017-Mar-26 07:33N 54°49' E 007°25'1515.4
2017-Mar-26 06:33N 55°05' E 007°24'1515.4
2017-Mar-26 05:33N 55°20' E 007°23'1514.8
2017-Mar-26 04:33N 55°35' E 007°21'1514.8
2017-Mar-26 03:33N 55°49' E 007°28'10414.9
2017-Mar-25 20:34N 57°23' E 008°51'1919.4
2017-Mar-25 19:33N 57°32' E 009°23'1919.3
2017-Mar-25 18:33N 57°41' E 009°56'1919.1
2017-Mar-25 17:34N 57°49' E 010°28'1817.7
2017-Mar-25 16:34N 57°43' E 010°59'1919.0
2017-Mar-25 15:34N 57°29' E 011°24'1919.4
2017-Mar-25 14:33N 57°11' E 011°38'2019.8
2017-Mar-25 13:32N 56°52' E 011°51'3819.1
2017-Mar-25 11:34N 56°16' E 012°11'2019.6
2017-Mar-25 10:34N 56°04' E 012°38'1817.6
2017-Mar-25 09:34N 55°46' E 012°42'5 4.7
2017-Mar-25 08:31N 55°43' E 012°37'0 0.0
2017-Mar-25 07:28N 55°43' E 012°37'0 0.0
2017-Mar-25 06:31N 55°43' E 012°37'0 0.0
2017-Mar-25 05:31N 55°43' E 012°37'0 0.0
2017-Mar-25 04:33N 55°43' E 012°37'9 9.1
2017-Mar-25 03:33N 55°51' E 012°42'1211.9
2017-Mar-25 02:33N 56°03' E 012°39'1312.9
2017-Mar-25 01:34N 56°11' E 012°21'1312.5
2017-Mar-25 00:31N 56°19' E 012°03'4213.1
2017-Mar-24 21:20N 56°59' E 011°43'1013.0
2017-Mar-24 20:33N 57°09' E 011°36'1413.6
2017-Mar-24 19:33N 57°22' E 011°28'1312.7
2017-Mar-24 18:33N 57°32' E 011°14'1312.8
2017-Mar-24 17:34N 57°41' E 010°57'1211.9
2017-Mar-24 16:32N 57°51' E 010°44'1312.8
2017-Mar-24 15:33N 58°04' E 010°43'1312.9
2017-Mar-24 14:33N 58°17' E 010°43'1413.5
2017-Mar-24 13:32N 58°30' E 010°41'1413.3
2017-Mar-24 12:31N 58°44' E 010°40'1313.1
2017-Mar-24 11:33N 58°56' E 010°39'1414.5
2017-Mar-24 10:34N 59°11' E 010°38'2020.0
2017-Mar-24 09:33N 59°31' E 010°35'1515.5
2017-Mar-24 08:33N 59°46' E 010°33'9 9.1
2017-Mar-24 07:31N 59°53' E 010°46'0 0.0
2017-Mar-24 06:31N 59°53' E 010°46'0 0.0
2017-Mar-24 05:31N 59°53' E 010°46'0 0.0
2017-Mar-24 04:31N 59°53' E 010°46'0 0.0
2017-Mar-24 03:31N 59°53' E 010°46'0 0.0
2017-Mar-24 02:31N 59°53' E 010°46'0 0.0
2017-Mar-24 01:31N 59°53' E 010°46'0 0.0
2017-Mar-24 00:31N 59°53' E 010°46'0 0.0
2017-Mar-23 23:31N 59°53' E 010°46'0 0.2
2017-Mar-23 22:33N 59°53' E 010°46'1212.1
2017-Mar-23 21:33N 59°42' E 010°36'1313.5
2017-Mar-23 20:33N 59°29' E 010°33'1111.1
2017-Mar-23 19:33N 59°39' E 010°24'7 7.2
2017-Mar-23 18:33N 59°44' E 010°14'0 0.0
2017-Mar-23 17:33N 59°44' E 010°14'0 0.0
2017-Mar-23 16:33N 59°44' E 010°14'0 0.0
2017-Mar-23 15:09N 59°44' E 010°14'4 7.4
2017-Mar-23 14:33N 59°42' E 010°21'1212.0
2017-Mar-23 13:34N 59°30' E 010°27'1918.5
2017-Mar-23 12:34N 59°13' E 010°39'1818.1
2017-Mar-23 11:34N 58°55' E 010°27'1817.8
2017-Mar-23 10:34N 58°41' E 010°08'3414.1
2017-Mar-23 08:08N 58°12' E 009°32'1114.3
2017-Mar-23 07:22N 58°03' E 009°21'14517.8
2017-Mar-22 23:11N 55°50' E 007°30'1218.4
2017-Mar-22 22:32N 55°39' E 007°24'1818.7
2017-Mar-22 21:33N 55°20' E 007°26'1818.3
2017-Mar-22 20:33N 55°02' E 007°25'1918.6
2017-Mar-22 19:33N 54°44' E 007°27'5516.6
2017-Mar-22 16:16N 53°52' E 007°56'1216.6
2017-Mar-22 15:33N 53°45' E 008°13'1515.4
2017-Mar-22 14:33N 53°35' E 008°32'1 1.4
2017-Mar-22 13:32N 53°34' E 008°34'0 0.5
2017-Mar-22 12:32N 53°34' E 008°34'0 0.0
2017-Mar-22 11:32N 53°34' E 008°34'0 0.0
2017-Mar-22 10:32N 53°34' E 008°34'0 0.0
2017-Mar-22 09:32N 53°34' E 008°34'0 0.0
2017-Mar-22 08:32N 53°34' E 008°34'0 0.0
2017-Mar-22 07:32N 53°34' E 008°34'0 0.0
2017-Mar-22 06:32N 53°34' E 008°34'0 0.0
2017-Mar-22 05:32N 53°34' E 008°34'0 0.0
2017-Mar-22 04:32N 53°34' E 008°34'1 1.0
2017-Mar-22 03:31N 53°35' E 008°33'0 0.0
2017-Mar-22 02:31N 53°35' E 008°33'0 0.0
2017-Mar-22 01:33N 53°35' E 008°33'0 0.0
2017-Mar-22 00:34N 53°35' E 008°33'0 0.0
2017-Mar-21 23:33N 53°35' E 008°33'0 0.0
2017-Mar-21 22:33N 53°35' E 008°33'0 0.0
2017-Mar-21 21:33N 53°35' E 008°33'0 0.0
2017-Mar-21 20:33N 53°35' E 008°33'0 0.0
2017-Mar-21 19:33N 53°35' E 008°33'0 0.0
2017-Mar-21 18:33N 53°35' E 008°33'0 0.0
2017-Mar-21 17:33N 53°35' E 008°33'0 0.0
2017-Mar-21 16:33N 53°35' E 008°33'1 0.5
2017-Mar-21 15:33N 53°34' E 008°33'7 7.4
2017-Mar-21 14:33N 53°39' E 008°24'1616.0
2017-Mar-21 13:33N 53°50' E 008°04'1514.4
2017-Mar-21 12:31N 53°55' E 007°40'4911.4
2017-Mar-21 08:13N 54°43' E 007°25'811.9
2017-Mar-21 07:33N 54°51' E 007°25'1414.3
2017-Mar-21 06:33N 55°05' E 007°24'1818.2
2017-Mar-21 05:33N 55°23' E 007°23'1817.4
2017-Mar-21 04:33N 55°41' E 007°25'19118.4
2017-Mar-20 18:11N 58°32' E 010°04'1219.2
2017-Mar-20 17:34N 58°41' E 010°17'1919.0
2017-Mar-20 16:33N 58°59' E 010°32'1918.8
2017-Mar-20 15:33N 59°17' E 010°36'1817.7
2017-Mar-20 14:34N 59°35' E 010°38'1616.1
2017-Mar-20 13:33N 59°51' E 010°36'5 5.3
2017-Mar-20 12:32N 59°53' E 010°46'0 0.0
2017-Mar-20 11:32N 59°53' E 010°46'0 0.0
2017-Mar-20 10:29N 59°53' E 010°46'0 0.0
2017-Mar-20 09:32N 59°53' E 010°46'0 0.0
2017-Mar-20 08:32N 59°53' E 010°46'0 0.0
2017-Mar-20 07:32N 59°53' E 010°46'0 0.0
2017-Mar-20 06:32N 59°53' E 010°46'0 0.0
2017-Mar-20 05:32N 59°53' E 010°46'0 0.0
2017-Mar-20 04:32N 59°53' E 010°46'0 0.0
2017-Mar-20 03:32N 59°53' E 010°46'0 0.0
2017-Mar-20 02:32N 59°53' E 010°46'0 0.0
2017-Mar-20 01:32N 59°53' E 010°46'0 0.0
2017-Mar-20 00:32N 59°53' E 010°46'0 0.0
2017-Mar-19 23:32N 59°53' E 010°46'0 0.0
2017-Mar-19 22:32N 59°53' E 010°46'7 7.7
2017-Mar-19 21:33N 59°48' E 010°35'1514.7
2017-Mar-19 20:33N 59°34' E 010°37'1918.7
2017-Mar-19 19:34N 59°15' E 010°38'1918.5
2017-Mar-19 18:34N 58°57' E 010°29'1414.2
2017-Mar-19 17:34N 58°45' E 010°13'16814.7
2017-Mar-19 06:08N 56°18' E 007°43'914.6
2017-Mar-19 05:33N 56°10' E 007°39'1414.4
2017-Mar-19 04:33N 55°56' E 007°32'1514.3
2017-Mar-19 03:28N 55°41' E 007°24'1313.9
2017-Mar-19 02:33N 55°28' E 007°22'1413.6
2017-Mar-19 01:33N 55°15' E 007°24'1313.3
2017-Mar-19 00:33N 55°02' E 007°26'1313.3
2017-Mar-18 23:33N 54°48' E 007°27'1313.1
2017-Mar-18 22:33N 54°35' E 007°30'5213.1
2017-Mar-18 18:33N 53°48' E 008°08'1818.5
2017-Mar-18 17:33N 53°36' E 008°31'2 1.7
2017-Mar-18 16:32N 53°35' E 008°34'0 0.0
2017-Mar-18 15:32N 53°35' E 008°34'0 0.0
2017-Mar-18 14:32N 53°35' E 008°34'0 0.2
2017-Mar-18 13:33N 53°35' E 008°33'1 0.7
2017-Mar-18 12:31N 53°34' E 008°34'0 0.0
2017-Mar-18 11:31N 53°34' E 008°34'0 0.0
2017-Mar-18 10:31N 53°34' E 008°34'0 0.0
2017-Mar-18 09:33N 53°34' E 008°34'0 0.0
2017-Mar-18 08:33N 53°34' E 008°34'0 0.0
2017-Mar-18 07:34N 53°34' E 008°34'0 0.0
2017-Mar-18 06:33N 53°34' E 008°34'0 0.5
2017-Mar-18 05:33N 53°34' E 008°34'0 0.1
2017-Mar-18 04:33N 53°33' E 008°34'6 6.3
2017-Mar-18 03:33N 53°38' E 008°26'1413.5
2017-Mar-18 02:33N 53°47' E 008°09'1211.9
2017-Mar-18 01:33N 53°52' E 007°51'10 9.5
2017-Mar-18 00:29N 53°52' E 007°34'54 9.1
2017-Mar-17 18:34N 54°46' E 007°25'1111.2
2017-Mar-17 17:33N 54°57' E 007°25'1111.2
2017-Mar-17 16:33N 55°08' E 007°25'1211.4
2017-Mar-17 15:33N 55°20' E 007°24'1211.7
2017-Mar-17 14:33N 55°31' E 007°21'1211.6
2017-Mar-17 13:32N 55°43' E 007°25'1311.6
2017-Mar-17 12:26N 55°55' E 007°32'18412.4
2017-Mar-16 21:33N 58°38' E 010°12'1212.2
2017-Mar-16 20:33N 58°48' E 010°23'1312.6
2017-Mar-16 19:34N 58°60' E 010°33'1414.2
2017-Mar-16 18:33N 59°14' E 010°37'1818.2
2017-Mar-16 17:33N 59°32' E 010°36'1515.3
2017-Mar-16 16:33N 59°47' E 010°34'8 8.2
2017-Mar-16 15:31N 59°53' E 010°46'0 0.0
2017-Mar-16 14:29N 59°53' E 010°46'0 0.0
2017-Mar-16 13:31N 59°53' E 010°46'0 0.0
2017-Mar-16 12:33N 59°53' E 010°46'0 0.0
2017-Mar-16 11:33N 59°53' E 010°46'0 0.0
2017-Mar-16 10:33N 59°53' E 010°46'5 5.5
2017-Mar-16 09:34N 59°50' E 010°36'1212.0
2017-Mar-16 08:34N 59°38' E 010°37'  

Dump ship's entire track history